Time;durP1;ratioP1;P1;durP2;ratioP2;P2;SDS_P1;SDS_P2;PMS_P1;PMS_P2;Temp;Humidity;BMP_temperature;BMP_pressure;BME280_temperature;BME280_humidity;BME280_pressure;Samples;Min_cycle;Max_cycle;Signal;HPM_P1;HPM_P2
2022/09/17 00:00:02;;;;;;;584.33;536.77;;;;;;;24.23;60.88;98590.31;349918;28;1117;-78
2022/09/17 00:00:12;;;;;;;587.13;539.53;;;;;;;24.24;61.19;98592.00;348916;28;1262;-79
2022/09/17 00:00:23;;;;;;;587.35;539.72;;;;;;;24.23;60.88;98588.47;346948;28;2043;-79
2022/09/17 00:00:33;;;;;;;581.00;533.43;;;;;;;24.23;61.20;98595.66;344956;28;2201;-77
2022/09/17 00:00:45;;;;;;;578.20;530.53;;;;;;;24.23;60.95;98591.16;346078;28;1231;-77
2022/09/17 00:00:55;;;;;;;578.65;530.92;;;;;;;24.22;61.09;98592.16;346313;28;1098;-77
2022/09/17 00:01:07;;;;;;;571.95;524.63;;;;;;;24.22;61.27;98589.50;347570;28;868;-77
2022/09/17 00:01:23;;;;;;;570.88;523.75;;;;;;;24.21;60.95;98594.00;347470;28;1257;-78
2022/09/17 00:01:34;;;;;;;575.05;527.95;;;;;;;24.24;61.15;98600.00;346203;28;1225;-78
2022/09/17 00:01:44;;;;;;;574.07;526.87;;;;;;;24.23;61.14;98595.66;347328;28;1492;-78
2022/09/17 00:01:54;;;;;;;580.55;533.00;;;;;;;24.23;61.09;98595.66;345920;28;1304;-78
2022/09/17 00:02:06;;;;;;;582.87;535.13;;;;;;;24.23;61.15;98590.31;345007;28;1577;-78
2022/09/17 00:02:16;;;;;;;586.63;538.70;;;;;;;24.25;60.97;98599.00;344749;28;1624;-78
2022/09/17 00:02:27;;;;;;;588.25;540.33;;;;;;;24.23;61.06;98601.84;345871;28;1621;-78
2022/09/17 00:02:38;;;;;;;587.42;539.50;;;;;;;24.21;60.84;98594.00;345097;28;1244;-78
2022/09/17 00:02:54;;;;;;;578.75;531.15;;;;;;;24.21;61.08;98599.34;346232;28;1240;-78
2022/09/17 00:03:05;;;;;;;582.55;534.92;;;;;;;24.21;61.14;98595.84;346094;28;1579;-78
2022/09/17 00:03:15;;;;;;;578.90;531.40;;;;;;;24.20;61.07;98596.84;347458;28;900;-78
2022/09/17 00:03:27;;;;;;;573.38;525.83;;;;;;;24.19;61.09;98601.38;348114;28;1215;-80
2022/09/17 00:03:37;;;;;;;570.03;522.50;;;;;;;24.19;61.34;98596.00;350312;28;956;-78
2022/09/17 00:03:52;;;;;;;573.97;526.37;;;;;;;24.19;61.42;98597.84;349060;28;955;-78
2022/09/17 00:04:03;;;;;;;574.00;526.65;;;;;;;24.18;61.11;98594.34;344943;28;1390;-78
2022/09/17 00:04:14;;;;;;;573.72;526.40;;;;;;;24.17;61.33;98600.69;345653;28;1116;-78
2022/09/17 00:04:24;;;;;;;573.33;526.03;;;;;;;24.17;61.59;98606.06;344753;28;2265;-78
2022/09/17 00:04:34;;;;;;;586.67;539.13;;;;;;;24.17;61.30;98603.38;342546;28;1248;-78
2022/09/17 00:04:47;;;;;;;594.90;547.20;;;;;;;24.16;61.44;98601.72;340951;28;1417;-78
2022/09/17 00:04:57;;;;;;;593.75;546.13;;;;;;;24.15;61.21;98594.69;338256;29;1625;-79
2022/09/17 00:05:08;;;;;;;591.17;543.67;;;;;;;24.13;61.55;98595.88;340915;29;953;-78
2022/09/17 00:05:19;;;;;;;588.33;540.80;;;;;;;24.11;61.43;98598.72;339873;29;1312;-78
2022/09/17 00:05:29;;;;;;;588.22;540.67;;;;;;;24.11;61.51;98604.06;344704;28;886;-78
2022/09/17 00:05:40;;;;;;;590.97;543.07;;;;;;;24.11;61.71;98595.22;343168;28;1771;-78
2022/09/17 00:05:58;;;;;;;600.15;552.00;;;;;;;24.11;61.80;98601.41;340803;29;1309;-77
2022/09/17 00:06:09;;;;;;;593.65;545.90;;;;;;;24.12;61.10;98600.38;339672;28;1755;-77
2022/09/17 00:06:20;;;;;;;584.88;537.17;;;;;;;24.13;61.43;98601.22;339484;29;877;-77
2022/09/17 00:06:32;;;;;;;585.07;537.03;;;;;;;24.13;61.21;98596.72;337656;29;1454;-78
2022/09/17 00:06:42;;;;;;;592.35;544.03;;;;;;;24.14;61.16;98609.06;341044;28;1371;-76
2022/09/17 00:06:52;;;;;;;587.83;539.97;;;;;;;24.14;61.34;98611.75;341787;28;1908;-78
2022/09/17 00:07:03;;;;;;;589.55;541.78;;;;;;;24.13;61.10;98602.06;339504;29;1287;-78
2022/09/17 00:07:14;;;;;;;583.10;535.63;;;;;;;24.14;61.07;98606.41;340190;28;1329;-77
2022/09/17 00:07:25;;;;;;;594.63;546.95;;;;;;;24.14;61.42;98609.06;336972;29;4052;-77
2022/09/17 00:07:35;;;;;;;598.20;550.22;;;;;;;24.13;61.48;98612.75;338755;29;2897;-78
2022/09/17 00:07:45;;;;;;;593.60;545.67;;;;;;;24.15;61.25;98612.56;340830;28;950;-79
2022/09/17 00:07:56;;;;;;;585.60;537.85;;;;;;;24.12;61.53;98610.25;339658;28;2128;-78
2022/09/17 00:08:08;;;;;;;581.22;533.75;;;;;;;24.13;61.32;98607.41;336660;29;2097;-78
2022/09/17 00:08:19;;;;;;;581.70;534.20;;;;;;;24.13;61.43;98612.75;333061;29;1350;-78
2022/09/17 00:08:29;;;;;;;584.80;537.23;;;;;;;24.13;61.72;98612.75;338219;28;2090;-78
2022/09/17 00:08:40;;;;;;;582.57;535.07;;;;;;;24.12;61.67;98611.09;336522;29;1846;-78
2022/09/17 00:08:50;;;;;;;581.13;533.67;;;;;;;24.12;61.52;98611.09;335610;29;944;-78
2022/09/17 00:09:02;;;;;;;581.15;533.65;;;;;;;24.10;61.65;98613.09;336612;29;1930;-78
2022/09/17 00:09:12;;;;;;;584.66;537.06;;;;;;;24.12;61.76;98615.59;335604;29;1741;-78
2022/09/17 00:09:23;;;;;;;579.97;532.43;;;;;;;24.12;61.80;98611.09;333267;29;1339;-78
2022/09/17 00:09:33;;;;;;;581.83;534.13;;;;;;;24.11;61.65;98612.09;334430;29;947;-79
2022/09/17 00:09:44;;;;;;;583.50;535.78;;;;;;;24.11;61.45;98614.75;332637;29;1083;-78
2022/09/17 00:09:54;;;;;;;590.90;543.00;;;;;;;24.12;61.36;98616.44;330966;29;1830;-78
2022/09/17 00:10:05;;;;;;;593.17;545.42;;;;;;;24.11;61.95;98611.25;329256;30;907;-78
2022/09/17 00:10:15;;;;;;;592.00;544.00;;;;;;;24.11;61.86;98609.41;332270;29;2326;-78
2022/09/17 00:10:26;;;;;;;586.53;538.53;;;;;;;24.10;61.70;98607.75;330607;29;2545;-78
2022/09/17 00:10:37;;;;;;;577.63;529.85;;;;;;;24.10;61.66;98607.75;327199;29;2769;-78
2022/09/17 00:10:48;;;;;;;581.03;533.50;;;;;;;24.10;61.93;98607.75;326652;30;1290;-78
2022/09/17 00:11:04;;;;;;;582.30;534.87;;;;;;;24.10;62.03;98610.41;328407;29;2500;-78
2022/09/17 00:11:19;;;;;;;580.85;533.40;;;;;;;24.09;62.17;98602.56;326564;30;2573;-78
2022/09/17 00:11:31;;;;;;;577.85;530.55;;;;;;;24.10;61.96;98597.06;326558;30;1838;-78
2022/09/17 00:11:42;;;;;;;583.90;536.60;;;;;;;24.13;62.05;98598.53;326353;30;1342;-78
2022/09/17 00:11:52;;;;;;;584.30;537.03;;;;;;;24.13;62.01;98602.06;326567;30;2060;-78
2022/09/17 00:12:03;;;;;;;587.80;540.17;;;;;;;24.12;61.92;98592.38;324850;30;1184;-78
2022/09/17 00:12:13;;;;;;;585.72;537.97;;;;;;;24.12;61.94;98600.38;324811;30;2921;-78
2022/09/17 00:12:23;;;;;;;589.57;541.63;;;;;;;24.12;62.09;98595.03;325506;30;2913;-78
2022/09/17 00:12:34;;;;;;;586.83;538.93;;;;;;;24.10;62.11;98594.38;323122;30;1082;-78
2022/09/17 00:12:45;;;;;;;586.25;538.38;;;;;;;24.08;62.35;98598.22;316852;30;3285;-79
2022/09/17 00:12:55;;;;;;;585.17;537.22;;;;;;;24.09;61.91;98591.88;315925;30;3415;-78
2022/09/17 00:13:06;;;;;;;592.83;544.77;;;;;;;24.08;61.96;98588.38;317417;31;1211;-78
2022/09/17 00:13:17;;;;;;;600.03;551.75;;;;;;;24.06;62.32;98595.72;314314;31;1017;-78
2022/09/17 00:13:27;;;;;;;602.80;554.65;;;;;;;24.05;62.41;98588.72;315712;31;3353;-78
2022/09/17 00:13:38;;;;;;;600.23;552.20;;;;;;;24.04;62.09;98587.06;314888;31;3179;-78
2022/09/17 00:13:49;;;;;;;595.90;548.20;;;;;;;23.99;62.54;98589.41;314978;31;1545;-78
2022/09/17 00:14:01;;;;;;;603.95;556.00;;;;;;;23.99;62.33;98586.72;312952;31;2163;-78
2022/09/17 00:14:15;;;;;;;616.70;568.58;;;;;;;23.97;62.44;98586.06;311019;31;2601;-78
2022/09/17 00:14:25;;;;;;;625.35;576.97;;;;;;;23.96;62.83;98584.41;310572;31;3329;-78
2022/09/17 00:14:35;;;;;;;619.37;571.10;;;;;;;23.95;62.55;98585.41;308213;32;1225;-78
2022/09/17 00:14:46;;;;;;;619.08;570.72;;;;;;;23.94;62.20;98581.06;310530;31;4063;-78
2022/09/17 00:14:56;;;;;;;618.33;570.10;;;;;;;23.94;62.27;98586.41;310663;31;4265;-78
2022/09/17 00:15:07;;;;;;;618.65;570.25;;;;;;;23.93;62.37;98592.75;307737;31;4770;-77
2022/09/17 00:15:18;;;;;;;625.13;576.53;;;;;;;23.93;62.55;98584.75;304320;32;1054;-77
2022/09/17 00:15:28;;;;;;;633.27;584.37;;;;;;;23.93;62.69;98590.09;302563;32;4216;-77
2022/09/17 00:15:42;;;;;;;636.13;587.30;;;;;;;23.93;62.29;98584.75;301947;32;5002;-77
2022/09/17 00:15:53;;;;;;;640.63;591.75;;;;;;;23.94;62.64;98586.41;302577;32;3418;-77
2022/09/17 00:16:04;;;;;;;640.20;591.40;;;;;;;23.95;62.34;98588.09;301029;32;1204;-77
2022/09/17 00:16:21;;;;;;;636.33;587.45;;;;;;;23.96;62.35;98589.75;297210;33;3187;-78
2022/09/17 00:16:34;;;;;;;623.50;574.90;;;;;;;23.98;62.50;98592.25;297787;33;2561;-78
2022/09/17 00:16:46;;;;;;;626.20;577.55;;;;;;;23.97;62.34;98590.59;294002;33;4986;-78
2022/09/17 00:16:56;;;;;;;632.15;583.22;;;;;;;23.99;62.50;98584.06;294092;33;6410;-79
2022/09/17 00:17:06;;;;;;;638.78;589.70;;;;;;;23.99;62.16;98585.91;294623;33;5744;-79
2022/09/17 00:17:17;;;;;;;641.60;592.43;;;;;;;23.98;62.45;98587.75;292416;33;3175;-78
2022/09/17 00:17:27;;;;;;;636.60;587.83;;;;;;;23.99;62.44;98589.41;289004;33;5991;-78
2022/09/17 00:17:38;;;;;;;633.47;584.80;;;;;;;24.00;62.63;98591.06;286869;34;5710;-78
2022/09/17 00:17:56;;;;;;;628.33;579.90;;;;;;;23.99;62.27;98588.56;288438;34;1164;-78
2022/09/17 00:18:07;;;;;;;625.38;577.17;;;;;;;23.99;62.35;98589.41;285203;34;5120;-77
2022/09/17 00:18:17;;;;;;;632.67;584.20;;;;;;;24.00;62.00;98591.06;283650;34;1417;-78
2022/09/17 00:18:28;;;;;;;635.60;586.87;;;;;;;24.00;62.19;98591.06;279346;34;5869;-78
2022/09/17 00:18:40;;;;;;;640.90;591.97;;;;;;;24.01;62.03;98587.41;276888;35;6902;-78
2022/09/17 00:18:51;;;;;;;638.88;590.00;;;;;;;24.00;62.34;98591.06;279073;35;1379;-78
2022/09/17 00:19:01;;;;;;;633.93;585.23;;;;;;;23.99;62.19;98592.09;274347;35;7265;-77
2022/09/17 00:19:16;;;;;;;626.97;578.30;;;;;;;23.99;62.38;98588.56;274752;35;9565;-77
2022/09/17 00:19:27;;;;;;;621.85;573.40;;;;;;;23.97;61.99;98591.41;275261;35;8810;-80
2022/09/17 00:19:37;;;;;;;628.58;580.20;;;;;;;23.96;62.58;98589.75;272818;35;8636;-79
2022/09/17 00:19:48;;;;;;;639.27;590.70;;;;;;;23.96;62.28;98588.91;273162;36;1248;-79
2022/09/17 00:21:29;;;;;;;572.40;525.85;;;;;;;23.97;62.39;98586.06;2495776;27;20498;-77
2022/09/17 00:21:40;;;;;;;613.67;565.60;;;;;;;23.98;62.58;98593.09;352760;28;1291;-77
2022/09/17 00:21:50;;;;;;;611.90;563.70;;;;;;;23.97;62.47;98593.25;350346;28;935;-78
2022/09/17 00:22:01;;;;;;;619.05;570.63;;;;;;;23.97;62.56;98591.41;347538;28;1530;-78
2022/09/17 00:22:11;;;;;;;616.00;567.63;;;;;;;23.99;62.38;98588.56;346186;28;1316;-79
2022/09/17 00:22:22;;;;;;;611.23;563.07;;;;;;;23.99;62.92;98593.91;348029;28;1671;-78
2022/09/17 00:22:32;;;;;;;612.60;564.30;;;;;;;23.99;62.45;98596.59;348784;28;1500;-78
2022/09/17 00:22:43;;;;;;;620.07;571.67;;;;;;;23.99;62.40;98594.75;347502;28;1300;-78
2022/09/17 00:22:53;;;;;;;616.78;568.55;;;;;;;24.01;62.28;98597.25;347537;28;963;-78
2022/09/17 00:23:03;;;;;;;608.37;560.40;;;;;;;24.01;62.35;98592.75;350370;28;988;-78
2022/09/17 00:23:14;;;;;;;605.30;557.47;;;;;;;24.00;62.20;98596.41;350128;28;1545;-78
2022/09/17 00:23:24;;;;;;;607.50;559.63;;;;;;;24.00;62.08;98592.91;350292;28;924;-78
2022/09/17 00:23:35;;;;;;;611.58;563.60;;;;;;;24.00;62.26;98596.41;348876;28;1362;-78
2022/09/17 00:23:45;;;;;;;612.10;563.80;;;;;;;23.98;62.46;98593.09;349117;28;863;-77
2022/09/17 00:23:57;;;;;;;615.77;567.33;;;;;;;23.97;62.52;98596.75;347538;28;913;-78
2022/09/17 00:24:09;;;;;;;615.13;566.60;;;;;;;24.00;62.57;98600.94;346858;28;1395;-77
2022/09/17 00:24:20;;;;;;;607.13;558.78;;;;;;;23.97;62.46;98596.75;346296;28;1039;-78
2022/09/17 00:24:30;;;;;;;610.17;561.65;;;;;;;23.97;62.39;98591.41;347556;28;1162;-78
2022/09/17 00:24:41;;;;;;;607.03;558.80;;;;;;;23.94;62.57;98593.59;346212;28;837;-78
2022/09/17 00:24:51;;;;;;;615.17;566.87;;;;;;;23.93;62.82;98586.59;344197;28;1664;-78
2022/09/17 00:25:02;;;;;;;611.33;563.20;;;;;;;23.92;62.91;98593.78;344882;28;937;-78
2022/09/17 00:25:13;;;;;;;611.53;563.25;;;;;;;23.92;62.66;98599.13;346021;28;1299;-78
2022/09/17 00:25:23;;;;;;;604.53;556.20;;;;;;;23.88;62.78;98587.94;347366;28;1234;-78
2022/09/17 00:25:37;;;;;;;611.80;563.20;;;;;;;23.88;62.67;98597.78;347761;28;1324;-78
2022/09/17 00:25:47;;;;;;;620.13;571.63;;;;;;;23.87;62.46;98590.78;347641;28;4375;-78
2022/09/17 00:25:58;;;;;;;618.37;570.13;;;;;;;23.89;62.82;98594.94;347038;28;5138;-78
2022/09/17 00:26:08;;;;;;;616.20;567.83;;;;;;;23.88;62.90;98592.44;346955;28;868;-78
2022/09/17 00:26:19;;;;;;;619.88;571.25;;;;;;;23.88;62.77;98587.94;347291;28;1807;-78
2022/09/17 00:26:30;;;;;;;611.57;563.13;;;;;;;23.89;62.95;98588.78;347656;28;1179;-78
2022/09/17 00:26:40;;;;;;;604.50;556.40;;;;;;;23.89;63.27;98591.44;344845;28;1244;-78
2022/09/17 00:26:52;;;;;;;605.20;557.17;;;;;;;23.90;62.81;98590.44;346163;28;1015;-78
2022/09/17 00:27:02;;;;;;;617.55;569.17;;;;;;;23.89;62.97;98592.28;346029;28;1346;-78
2022/09/17 00:27:13;;;;;;;616.40;568.00;;;;;;;23.90;62.92;98595.78;340664;28;1376;-78
2022/09/17 00:27:23;;;;;;;614.25;565.90;;;;;;;23.91;62.86;98592.09;345306;28;1599;-78
2022/09/17 00:27:34;;;;;;;609.83;561.53;;;;;;;23.91;62.67;98586.75;341829;28;1240;-78
2022/09/17 00:27:44;;;;;;;607.53;559.13;;;;;;;23.91;62.79;98592.09;339403;29;1218;-78
2022/09/17 00:27:55;;;;;;;610.38;562.00;;;;;;;23.91;62.83;98592.09;339322;29;1443;-78
2022/09/17 00:28:05;;;;;;;619.90;571.47;;;;;;;23.93;62.83;98589.25;339540;29;1342;-78
2022/09/17 00:28:16;;;;;;;618.20;569.90;;;;;;;23.91;63.16;98585.94;341040;29;1158;-78
2022/09/17 00:28:27;;;;;;;613.17;564.85;;;;;;;23.87;63.01;98590.78;339528;29;874;-78
2022/09/17 00:28:37;;;;;;;607.15;558.90;;;;;;;23.88;63.03;98587.09;337428;29;846;-77
2022/09/17 00:28:49;;;;;;;606.57;558.37;;;;;;;23.87;62.97;98588.09;339576;29;1308;-77
2022/09/17 00:29:00;;;;;;;612.75;564.58;;;;;;;23.87;63.11;98590.78;340945;29;1425;-77
2022/09/17 00:29:10;;;;;;;618.78;570.58;;;;;;;23.86;63.09;98594.47;340460;28;1363;-77
2022/09/17 00:29:20;;;;;;;626.33;577.93;;;;;;;23.86;62.94;98583.75;337830;29;1285;-79
2022/09/17 00:29:31;;;;;;;618.25;569.90;;;;;;;23.86;62.70;98587.28;339480;29;878;-77
2022/09/17 00:29:41;;;;;;;613.30;564.87;;;;;;;23.87;63.24;98588.09;338950;28;1428;-77
2022/09/17 00:29:52;;;;;;;609.40;560.93;;;;;;;23.87;62.85;98591.63;340905;28;1315;-77
2022/09/17 00:30:03;;;;;;;611.35;562.92;;;;;;;23.86;62.90;98586.44;342251;28;1031;-77
2022/09/17 00:30:13;;;;;;;619.13;570.53;;;;;;;23.87;63.08;98585.44;336799;29;1402;-77
2022/09/17 00:30:24;;;;;;;625.50;576.83;;;;;;;23.85;63.18;98582.94;334668;29;1320;-77
2022/09/17 00:30:34;;;;;;;628.85;580.05;;;;;;;23.85;63.24;98587.44;335833;29;1544;-78
2022/09/17 00:30:45;;;;;;;627.13;578.53;;;;;;;23.85;63.21;98595.47;338113;29;1350;-78
2022/09/17 00:30:55;;;;;;;618.60;570.25;;;;;;;23.84;63.18;98596.47;335476;29;1471;-79
2022/09/17 00:31:09;;;;;;;615.33;567.03;;;;;;;23.83;63.18;98594.81;335768;29;1338;-77
2022/09/17 00:31:19;;;;;;;617.25;568.75;;;;;;;23.82;63.05;98591.31;330147;29;1514;-77
2022/09/17 00:31:30;;;;;;;622.92;574.28;;;;;;;23.82;63.47;98590.50;328254;30;821;-77
2022/09/17 00:31:40;;;;;;;625.80;577.00;;;;;;;23.82;63.56;98594.00;331523;29;1733;-79
2022/09/17 00:31:51;;;;;;;623.20;574.40;;;;;;;23.83;63.10;98594.81;332613;29;1942;-79
2022/09/17 00:32:01;;;;;;;623.67;574.83;;;;;;;23.82;63.13;98593.16;333196;29;943;-77
2022/09/17 00:32:12;;;;;;;628.00;579.05;;;;;;;23.81;63.00;98589.66;329424;29;2016;-77
2022/09/17 00:32:22;;;;;;;633.60;584.50;;;;;;;23.83;63.36;98590.28;325155;30;2191;-78
2022/09/17 00:32:32;;;;;;;637.97;588.77;;;;;;;23.83;63.18;98589.47;323121;30;1512;-77
2022/09/17 00:32:43;;;;;;;632.42;583.45;;;;;;;23.82;63.25;98593.16;325841;30;1436;-77
2022/09/17 00:32:56;;;;;;;632.17;583.27;;;;;;;23.82;63.39;98598.50;327337;30;1472;-77
2022/09/17 00:33:07;;;;;;;621.70;573.15;;;;;;;23.79;63.27;98591.66;327197;30;1244;-77
2022/09/17 00:33:19;;;;;;;619.07;570.57;;;;;;;23.78;63.56;98602.53;330493;29;919;-77
2022/09/17 00:33:29;;;;;;;620.55;571.88;;;;;;;23.76;63.74;98593.84;322604;30;1497;-77
2022/09/17 00:33:39;;;;;;;619.40;570.63;;;;;;;23.73;63.91;98596.84;317844;30;2103;-78
2022/09/17 00:33:50;;;;;;;626.17;577.00;;;;;;;23.71;63.80;98597.03;317408;30;2561;-78
2022/09/17 00:34:01;;;;;;;631.28;581.88;;;;;;;23.68;63.63;98591.19;317666;31;826;-77
2022/09/17 00:34:11;;;;;;;635.40;585.80;;;;;;;23.65;64.09;98592.38;315965;30;2549;-77
2022/09/17 00:34:22;;;;;;;639.72;590.28;;;;;;;23.65;63.89;98596.88;315301;31;3002;-78
2022/09/17 00:34:32;;;;;;;652.33;602.47;;;;;;;23.64;63.96;98598.72;315419;31;1180;-78
2022/09/17 00:34:42;;;;;;;661.38;611.47;;;;;;;23.64;63.71;98595.22;314880;31;2784;-78
2022/09/17 00:34:53;;;;;;;660.80;611.00;;;;;;;23.66;63.82;98593.19;312839;31;2004;-78
2022/09/17 00:35:04;;;;;;;651.05;601.97;;;;;;;23.68;63.94;98599.22;310909;31;4715;-78
2022/09/17 00:35:14;;;;;;;655.42;606.20;;;;;;;23.68;63.76;98596.53;316988;31;4086;-78
2022/09/17 00:35:25;;;;;;;659.47;609.97;;;;;;;23.67;63.75;98594.88;316926;30;2162;-77
2022/09/17 00:35:35;;;;;;;658.58;609.13;;;;;;;23.68;63.66;98599.22;317254;30;2483;-77
2022/09/17 00:35:56;;;;;;;654.63;605.40;;;;;;;23.68;63.94;98599.22;313973;31;1296;-78
2022/09/17 00:36:07;;;;;;;638.80;589.90;;;;;;;23.68;63.88;98597.38;314771;31;3424;-77
2022/09/17 00:36:19;;;;;;;634.42;585.55;;;;;;;23.68;64.00;98596.53;312812;31;1354;-77
2022/09/17 00:36:30;;;;;;;631.75;582.95;;;;;;;23.68;63.99;98602.72;312863;31;1382;-78
2022/09/17 00:36:40;;;;;;;628.85;580.17;;;;;;;23.68;64.30;98594.69;310162;31;3594;-78
2022/09/17 00:36:50;;;;;;;624.37;575.90;;;;;;;23.67;64.08;98601.03;309640;31;3293;-78
2022/09/17 00:37:01;;;;;;;629.35;580.75;;;;;;;23.68;63.93;98601.88;309981;31;922;-78
2022/09/17 00:37:11;;;;;;;627.50;578.77;;;;;;;23.67;64.38;98598.38;311117;31;2274;-77
2022/09/17 00:37:22;;;;;;;624.03;575.30;;;;;;;23.66;64.57;98601.22;308845;31;2881;-77
2022/09/17 00:37:32;;;;;;;625.40;576.60;;;;;;;23.67;64.31;98594.88;306353;32;1239;-77
2022/09/17 00:37:42;;;;;;;632.07;582.83;;;;;;;23.67;64.13;98597.53;304889;32;3522;-77
2022/09/17 00:37:53;;;;;;;634.38;584.95;;;;;;;23.67;64.05;98598.38;301971;32;3822;-77
2022/09/17 00:38:03;;;;;;;635.57;586.00;;;;;;;23.68;64.16;98600.03;300411;32;4045;-77
2022/09/17 00:38:14;;;;;;;635.20;585.93;;;;;;;23.68;64.26;98601.88;301128;32;2379;-77
2022/09/17 00:38:24;;;;;;;647.17;597.60;;;;;;;23.66;64.45;98594.03;300610;32;4637;-77
2022/09/17 00:38:35;;;;;;;649.47;599.67;;;;;;;23.68;64.09;98601.88;298599;32;4420;-77
2022/09/17 00:38:53;;;;;;;651.63;601.95;;;;;;;23.68;64.37;98596.53;304302;32;980;-77
2022/09/17 00:39:04;;;;;;;649.45;599.60;;;;;;;23.68;64.19;98597.38;307986;31;4131;-78
2022/09/17 00:39:15;;;;;;;647.17;597.50;;;;;;;23.68;63.99;98601.88;305474;32;1439;-78
2022/09/17 00:39:25;;;;;;;647.43;597.80;;;;;;;23.68;64.08;98601.88;301908;32;3049;-78
2022/09/17 00:39:36;;;;;;;649.42;600.13;;;;;;;23.67;63.81;98601.03;300478;32;3609;-79
2022/09/17 00:39:46;;;;;;;651.17;601.50;;;;;;;23.69;64.06;98598.19;299973;32;3080;-79
2022/09/17 00:39:57;;;;;;;663.95;613.45;;;;;;;23.68;64.19;98597.38;302406;32;4573;-78
2022/09/17 00:40:08;;;;;;;666.13;615.60;;;;;;;23.70;64.06;98597.19;300235;32;5025;-78
2022/09/17 00:40:18;;;;;;;671.65;621.38;;;;;;;23.69;64.08;98603.53;295522;33;5716;-78
2022/09/17 00:40:29;;;;;;;667.58;618.38;;;;;;;23.68;64.33;98607.22;292269;33;888;-78
2022/09/17 00:40:39;;;;;;;671.47;621.97;;;;;;;23.68;64.19;98607.22;292649;33;6320;-78
2022/09/17 00:40:49;;;;;;;662.17;612.75;;;;;;;23.67;64.38;98605.56;291569;33;6932;-78
2022/09/17 00:41:00;;;;;;;657.67;608.03;;;;;;;23.66;64.09;98598.53;294283;33;1106;-78
2022/09/17 00:41:11;;;;;;;656.20;606.90;;;;;;;23.66;64.17;98598.53;290856;33;5276;-78
2022/09/17 00:41:22;;;;;;;665.42;616.00;;;;;;;23.65;64.27;98596.88;288749;34;6168;-78
2022/09/17 00:41:34;;;;;;;678.35;628.55;;;;;;;23.64;64.07;98608.56;287366;34;1313;-78
2022/09/17 00:41:44;;;;;;;683.92;633.65;;;;;;;23.63;64.07;98604.22;282632;35;1249;-77
2022/09/17 00:41:55;;;;;;;691.47;641.10;;;;;;;23.64;64.17;98600.56;283220;34;5660;-77
2022/09/17 00:42:09;;;;;;;690.45;640.13;;;;;;;23.65;63.95;98602.22;283943;34;6811;-77
2022/09/17 00:42:20;;;;;;;693.50;643.08;;;;;;;23.65;64.12;98602.22;282061;34;7339;-77
2022/09/17 00:42:30;;;;;;;697.40;647.00;;;;;;;23.67;64.26;98600.22;278216;35;2564;-77
2022/09/17 00:42:44;;;;;;;689.03;638.83;;;;;;;23.66;63.99;98606.56;279280;34;8609;-79
2022/09/17 00:42:54;;;;;;;683.35;633.42;;;;;;;23.65;64.38;98608.41;278472;35;8751;-78
2022/09/17 00:43:09;;;;;;;687.63;637.50;;;;;;;23.67;64.18;98606.38;279920;34;9472;-78
2022/09/17 00:43:37;;;;;;;687.95;637.78;;;;;;;23.67;64.28;98600.22;277573;35;7527;-77
2022/09/17 00:45:41;;;;;;;636.07;587.95;;;;;;;23.66;63.75;98604.72;2493057;27;20259;-78
2022/09/17 00:45:52;;;;;;;685.90;636.17;;;;;;;23.65;63.97;98608.41;351594;28;1281;-78
2022/09/17 00:46:05;;;;;;;681.50;631.85;;;;;;;23.64;63.93;98605.91;348960;28;901;-78
2022/09/17 00:46:15;;;;;;;681.03;631.63;;;;;;;23.65;64.25;98607.56;350129;28;1483;-77
2022/09/17 00:46:29;;;;;;;681.35;631.97;;;;;;;23.64;64.30;98603.22;350258;28;1275;-78
2022/09/17 00:46:42;;;;;;;682.33;632.83;;;;;;;23.63;64.53;98598.88;350326;28;958;-77
2022/09/17 00:46:52;;;;;;;675.42;625.88;;;;;;;23.59;64.57;98608.25;350301;28;1335;-77
2022/09/17 00:47:02;;;;;;;681.33;631.47;;;;;;;23.57;64.43;98605.72;350169;28;1538;-77
2022/09/17 00:47:53;;;;;;;689.03;638.85;;;;;;;23.54;64.70;98606.06;347529;28;1336;-77
2022/09/17 00:48:04;;;;;;;681.85;632.20;;;;;;;23.49;65.20;98609.22;343345;28;1110;-79
2022/09/17 00:48:15;;;;;;;683.67;633.83;;;;;;;23.49;64.92;98605.72;344800;28;877;-78
2022/09/17 00:48:25;;;;;;;685.93;635.80;;;;;;;23.49;64.88;98608.38;342155;28;941;-78
2022/09/17 00:48:36;;;;;;;691.63;641.38;;;;;;;23.50;64.76;98604.72;340786;29;949;-78
2022/09/17 00:48:46;;;;;;;692.17;641.97;;;;;;;23.50;64.94;98599.38;340455;28;3168;-77
2022/09/17 00:49:04;;;;;;;691.47;641.45;;;;;;;23.51;64.63;98603.72;342758;28;2974;-79
2022/09/17 00:49:21;;;;;;;699.67;649.47;;;;;;;23.53;64.77;98605.25;344459;28;1279;-77
2022/09/17 00:49:32;;;;;;;693.80;643.83;;;;;;;23.53;64.42;98609.75;345827;28;1265;-78
2022/09/17 00:49:42;;;;;;;682.27;632.73;;;;;;;23.53;64.73;98601.72;340725;29;885;-78
2022/09/17 00:49:56;;;;;;;677.20;627.55;;;;;;;23.53;64.46;98602.56;343169;28;1274;-78
2022/09/17 00:50:22;;;;;;;679.90;630.20;;;;;;;23.55;64.52;98605.06;344375;28;1529;-78
2022/09/17 00:50:38;;;;;;;689.28;639.65;;;;;;;23.56;64.47;98604.06;341591;28;1391;-78
2022/09/17 00:50:49;;;;;;;683.80;633.97;;;;;;;23.55;64.29;98603.22;342129;28;1372;-78
2022/09/17 00:51:00;;;;;;;679.75;629.83;;;;;;;23.56;64.48;98604.06;341875;28;1009;-79
2022/09/17 00:51:10;;;;;;;684.53;634.42;;;;;;;23.56;64.53;98606.75;345012;28;1331;-78
2022/09/17 00:51:25;;;;;;;686.90;636.90;;;;;;;23.57;64.19;98602.22;342920;28;1890;-78
2022/09/17 00:51:38;;;;;;;693.10;643.22;;;;;;;23.58;64.63;98601.22;342673;28;1164;-77
2022/09/17 00:51:53;;;;;;;688.38;638.50;;;;;;;23.60;64.56;98604.56;345126;28;1019;-79
2022/09/17 00:52:06;;;;;;;694.63;644.60;;;;;;;23.58;64.49;98602.06;345071;28;1477;-77
2022/09/17 00:52:23;;;;;;;692.03;642.17;;;;;;;23.58;64.45;98596.72;344775;28;1340;-78
2022/09/17 00:52:37;;;;;;;672.65;623.05;;;;;;;23.57;64.32;98596.88;342711;28;1290;-77
2022/09/17 00:52:53;;;;;;;674.78;625.13;;;;;;;23.53;64.61;98597.22;343663;28;1063;-79
2022/09/17 00:53:08;;;;;;;671.47;622.15;;;;;;;23.53;64.43;98597.22;346571;28;1289;-77
2022/09/17 00:53:20;;;;;;;670.78;621.60;;;;;;;23.51;64.47;98593.84;342767;28;1232;-78
2022/09/17 00:53:30;;;;;;;674.03;624.78;;;;;;;23.50;64.71;98600.19;341251;28;1478;-77
2022/09/17 00:53:40;;;;;;;676.63;627.23;;;;;;;23.48;64.63;98596.88;340714;28;1528;-78
2022/09/17 00:53:51;;;;;;;680.72;631.03;;;;;;;23.46;64.67;98593.53;345376;28;1363;-78
2022/09/17 00:54:02;;;;;;;689.93;640.00;;;;;;;23.45;64.89;98593.69;340642;28;1303;-78
2022/09/17 00:54:13;;;;;;;688.47;638.72;;;;;;;23.44;64.79;98598.22;340835;29;1206;-77
2022/09/17 00:54:25;;;;;;;681.63;632.08;;;;;;;23.44;64.80;98590.19;338015;29;1667;-78
2022/09/17 00:54:39;;;;;;;683.63;634.03;;;;;;;23.48;65.08;98593.38;336380;29;1423;-78
2022/09/17 00:55:13;;;;;;;690.33;640.33;;;;;;;23.46;64.53;98598.88;336057;29;1325;-78
2022/09/17 00:55:44;;;;;;;670.22;621.17;;;;;;;23.42;64.95;98592.19;336547;29;1598;-78
2022/09/17 00:55:58;;;;;;;678.13;628.70;;;;;;;23.41;65.24;98590.53;331440;29;1839;-78
2022/09/17 00:56:25;;;;;;;688.75;639.00;;;;;;;23.37;65.12;98588.41;330948;29;1979;-78
2022/09/17 00:56:37;;;;;;;679.78;630.17;;;;;;;23.35;65.17;98585.91;324354;30;2333;-77
2022/09/17 00:56:48;;;;;;;693.45;643.45;;;;;;;23.35;65.49;98591.25;323779;30;1788;-77
2022/09/17 00:56:58;;;;;;;699.07;648.87;;;;;;;23.37;65.28;98589.22;324398;30;1184;-78
2022/09/17 00:57:08;;;;;;;699.00;648.78;;;;;;;23.34;65.46;98584.22;325254;30;1317;-77
2022/09/17 00:57:19;;;;;;;694.23;644.17;;;;;;;23.34;65.53;98588.72;321867;30;1642;-77
2022/09/17 00:57:29;;;;;;;690.30;640.38;;;;;;;23.32;65.39;98586.22;318570;30;2022;-77